sensor_id;sensor_type;location;lat;lon;timestamp;temperature;humidity
1123;DHT22;548;48.778;9.252;2023-04-24T03:55:42;11.90;99.90
1123;DHT22;548;48.778;9.252;2023-04-24T03:58:09;11.70;99.90
1123;DHT22;548;48.778;9.252;2023-04-24T04:00:36;11.70;99.90
1123;DHT22;548;48.778;9.252;2023-04-24T04:03:03;11.60;99.90
1123;DHT22;548;48.778;9.252;2023-04-24T04:05:29;11.60;99.90
1123;DHT22;548;48.778;9.252;2023-04-24T04:07:56;11.50;99.90
1123;DHT22;548;48.778;9.252;2023-04-24T04:10:23;11.60;99.90
1123;DHT22;548;48.778;9.252;2023-04-24T04:12:51;11.50;99.90
1123;DHT22;548;48.778;9.252;2023-04-24T04:15:18;11.50;99.90
1123;DHT22;548;48.778;9.252;2023-04-24T04:17:44;11.60;99.90
1123;DHT22;548;48.778;9.252;2023-04-24T04:20:12;11.70;99.90
1123;DHT22;548;48.778;9.252;2023-04-24T04:22:39;11.70;99.90
1123;DHT22;548;48.778;9.252;2023-04-24T04:25:06;11.80;99.90
1123;DHT22;548;48.778;9.252;2023-04-24T04:27:34;11.90;99.90
1123;DHT22;548;48.778;9.252;2023-04-24T04:30:03;11.90;99.90
1123;DHT22;548;48.778;9.252;2023-04-24T04:32:31;12.00;99.90
1123;DHT22;548;48.778;9.252;2023-04-24T04:34:58;11.90;99.90
1123;DHT22;548;48.778;9.252;2023-04-24T04:37:28;11.80;99.90
1123;DHT22;548;48.778;9.252;2023-04-24T04:39:55;11.70;99.90
1123;DHT22;548;48.778;9.252;2023-04-24T04:42:23;11.50;99.90
1123;DHT22;548;48.778;9.252;2023-04-24T04:44:50;11.40;99.90
1123;DHT22;548;48.778;9.252;2023-04-24T04:47:18;11.30;99.90
1123;DHT22;548;48.778;9.252;2023-04-24T04:49:47;11.30;99.90
1123;DHT22;548;48.778;9.252;2023-04-24T04:52:14;11.30;99.90
1123;DHT22;548;48.778;9.252;2023-04-24T04:54:42;11.30;99.90
1123;DHT22;548;48.778;9.252;2023-04-24T04:57:09;11.20;99.90
1123;DHT22;548;48.778;9.252;2023-04-24T04:59:36;10.90;99.90
1123;DHT22;548;48.778;9.252;2023-04-24T05:02:03;10.90;99.90
1123;DHT22;548;48.778;9.252;2023-04-24T05:04:31;10.80;99.90
1123;DHT22;548;48.778;9.252;2023-04-24T05:06:58;10.80;99.90
1123;DHT22;548;48.778;9.252;2023-04-24T05:09:24;10.70;99.90
1123;DHT22;548;48.778;9.252;2023-04-24T05:11:52;10.70;99.90
1123;DHT22;548;48.778;9.252;2023-04-24T05:14:19;10.70;99.90
1123;DHT22;548;48.778;9.252;2023-04-24T05:16:46;10.70;99.90
1123;DHT22;548;48.778;9.252;2023-04-24T05:19:13;10.70;99.90
1123;DHT22;548;48.778;9.252;2023-04-24T05:21:41;10.70;99.90
1123;DHT22;548;48.778;9.252;2023-04-24T05:24:08;10.80;99.90
1123;DHT22;548;48.778;9.252;2023-04-24T05:26:34;10.80;99.90
1123;DHT22;548;48.778;9.252;2023-04-24T05:29:01;10.80;99.90
1123;DHT22;548;48.778;9.252;2023-04-24T05:31:28;10.80;99.90
1123;DHT22;548;48.778;9.252;2023-04-24T05:33:55;10.80;99.90
1123;DHT22;548;48.778;9.252;2023-04-24T05:36:22;10.80;99.90
1123;DHT22;548;48.778;9.252;2023-04-24T05:38:50;10.90;99.90
1123;DHT22;548;48.778;9.252;2023-04-24T05:41:16;10.90;99.90
1123;DHT22;548;48.778;9.252;2023-04-24T05:43:43;10.90;99.90
1123;DHT22;548;48.778;9.252;2023-04-24T05:46:10;10.90;99.90
1123;DHT22;548;48.778;9.252;2023-04-24T05:48:37;10.90;99.90
1123;DHT22;548;48.778;9.252;2023-04-24T05:51:04;11.00;99.90
1123;DHT22;548;48.778;9.252;2023-04-24T05:53:31;11.10;99.90
1123;DHT22;548;48.778;9.252;2023-04-24T05:59:23;11.60;99.90
1123;DHT22;548;48.778;9.252;2023-04-24T06:01:49;11.50;99.90
1123;DHT22;548;48.778;9.252;2023-04-24T06:04:16;11.60;99.90
1123;DHT22;548;48.778;9.252;2023-04-24T06:11:37;11.80;99.90
1123;DHT22;548;48.778;9.252;2023-04-24T06:14:04;11.90;99.90
1123;DHT22;548;48.778;9.252;2023-04-24T06:16:32;11.90;99.90
1123;DHT22;548;48.778;9.252;2023-04-24T06:18:59;12.00;99.90
1123;DHT22;548;48.778;9.252;2023-04-24T06:21:25;12.00;99.90
1123;DHT22;548;48.778;9.252;2023-04-24T06:23:53;12.30;99.90
1123;DHT22;548;48.778;9.252;2023-04-24T06:26:21;12.90;99.90
1123;DHT22;548;48.778;9.252;2023-04-24T06:28:50;13.40;99.90
1123;DHT22;548;48.778;9.252;2023-04-24T06:31:16;14.10;99.90
1123;DHT22;548;48.778;9.252;2023-04-24T06:33:44;15.00;99.90
1123;DHT22;548;48.778;9.252;2023-04-24T06:36:11;15.80;99.90
1123;DHT22;548;48.778;9.252;2023-04-24T06:38:38;16.50;99.90
1123;DHT22;548;48.778;9.252;2023-04-24T06:41:05;17.50;99.90
1123;DHT22;548;48.778;9.252;2023-04-24T06:43:32;17.50;99.90
1123;DHT22;548;48.778;9.252;2023-04-24T06:45:59;18.30;99.90
1123;DHT22;548;48.778;9.252;2023-04-24T06:48:28;18.40;99.90
1123;DHT22;548;48.778;9.252;2023-04-24T06:50:56;18.30;99.90
1123;DHT22;548;48.778;9.252;2023-04-24T06:53:23;18.40;99.90
1123;DHT22;548;48.778;9.252;2023-04-24T06:55:50;18.50;98.50
1123;DHT22;548;48.778;9.252;2023-04-24T06:58:17;18.30;98.10
1123;DHT22;548;48.778;9.252;2023-04-24T07:00:44;18.60;99.60
1123;DHT22;548;48.778;9.252;2023-04-24T07:03:11;19.10;99.90
1123;DHT22;548;48.778;9.252;2023-04-24T07:05:37;19.60;94.80
1123;DHT22;548;48.778;9.252;2023-04-24T07:08:05;19.00;96.00
1123;DHT22;548;48.778;9.252;2023-04-24T07:10:34;18.60;97.70
1123;DHT22;548;48.778;9.252;2023-04-24T07:13:01;19.10;95.20
1123;DHT22;548;48.778;9.252;2023-04-24T07:15:27;18.40;95.80
1123;DHT22;548;48.778;9.252;2023-04-24T07:17:54;18.30;95.80
1123;DHT22;548;48.778;9.252;2023-04-24T07:20:21;17.70;95.50
1123;DHT22;548;48.778;9.252;2023-04-24T07:22:48;17.20;96.30
1123;DHT22;548;48.778;9.252;2023-04-24T07:25:16;16.60;98.90
1123;DHT22;548;48.778;9.252;2023-04-24T07:27:43;15.90;99.50
1123;DHT22;548;48.778;9.252;2023-04-24T07:30:10;15.70;99.90
1123;DHT22;548;48.778;9.252;2023-04-24T07:32:37;15.30;99.90
1123;DHT22;548;48.778;9.252;2023-04-24T07:35:04;15.10;99.90
1123;DHT22;548;48.778;9.252;2023-04-24T07:37:31;14.90;99.90
1123;DHT22;548;48.778;9.252;2023-04-24T07:39:58;14.90;99.90
1123;DHT22;548;48.778;9.252;2023-04-24T07:42:26;15.00;99.90
1123;DHT22;548;48.778;9.252;2023-04-24T07:44:53;15.20;99.90
1123;DHT22;548;48.778;9.252;2023-04-24T07:47:19;15.50;98.40
1123;DHT22;548;48.778;9.252;2023-04-24T07:49:46;16.00;96.90
1123;DHT22;548;48.778;9.252;2023-04-24T07:52:13;16.80;96.20
1123;DHT22;548;48.778;9.252;2023-04-24T07:54:39;17.10;95.20
1123;DHT22;548;48.778;9.252;2023-04-24T07:57:06;16.40;93.40
1123;DHT22;548;48.778;9.252;2023-04-24T07:59:34;16.60;95.40
1123;DHT22;548;48.778;9.252;2023-04-24T08:02:01;17.50;93.10
1123;DHT22;548;48.778;9.252;2023-04-24T08:04:28;18.10;90.70
1123;DHT22;548;48.778;9.252;2023-04-24T08:06:55;18.10;89.60
1123;DHT22;548;48.778;9.252;2023-04-24T08:09:21;17.50;90.30
1123;DHT22;548;48.778;9.252;2023-04-24T08:11:48;17.40;91.50
1123;DHT22;548;48.778;9.252;2023-04-24T08:14:15;17.40;91.10
1123;DHT22;548;48.778;9.252;2023-04-24T08:16:43;17.40;90.80
1123;DHT22;548;48.778;9.252;2023-04-24T08:19:10;16.90;90.40
1123;DHT22;548;48.778;9.252;2023-04-24T08:21:36;16.40;91.00
1123;DHT22;548;48.778;9.252;2023-04-24T08:24:03;16.30;91.60
1123;DHT22;548;48.778;9.252;2023-04-24T08:29:01;17.20;89.80
1123;DHT22;548;48.778;9.252;2023-04-24T08:31:27;17.00;89.50
1123;DHT22;548;48.778;9.252;2023-04-24T08:33:55;17.00;90.10
1123;DHT22;548;48.778;9.252;2023-04-24T08:36:22;17.40;88.10
1123;DHT22;548;48.778;9.252;2023-04-24T08:38:49;17.30;88.70
1123;DHT22;548;48.778;9.252;2023-04-24T08:41:16;17.10;89.20
1123;DHT22;548;48.778;9.252;2023-04-24T08:43:45;17.10;89.40
1123;DHT22;548;48.778;9.252;2023-04-24T08:46:13;16.90;88.90
1123;DHT22;548;48.778;9.252;2023-04-24T08:48:42;16.90;89.00
1123;DHT22;548;48.778;9.252;2023-04-24T08:51:10;16.90;90.20
1123;DHT22;548;48.778;9.252;2023-04-24T08:53:37;17.00;88.40
1123;DHT22;548;48.778;9.252;2023-04-24T08:56:39;15.70;93.40
1123;DHT22;548;48.778;9.252;2023-04-24T08:59:10;15.20;93.40
1123;DHT22;548;48.778;9.252;2023-04-24T09:01:43;15.10;94.30
1123;DHT22;548;48.778;9.252;2023-04-24T09:04:14;15.30;93.80
1123;DHT22;548;48.778;9.252;2023-04-24T09:07:08;15.80;92.50
1123;DHT22;548;48.778;9.252;2023-04-24T09:10:16;16.40;91.80
1123;DHT22;548;48.778;9.252;2023-04-24T09:15:38;15.90;91.60
1123;DHT22;548;48.778;9.252;2023-04-24T09:27:14;14.90;94.50
1123;DHT22;548;48.778;9.252;2023-04-24T09:36:54;14.30;99.00
1123;DHT22;548;48.778;9.252;2023-04-24T09:42:46;14.40;99.90
1123;DHT22;548;48.778;9.252;2023-04-24T09:45:17;14.40;99.90
1123;DHT22;548;48.778;9.252;2023-04-24T09:47:44;14.70;99.90
1123;DHT22;548;48.778;9.252;2023-04-24T09:50:16;15.10;98.90
1123;DHT22;548;48.778;9.252;2023-04-24T09:52:43;15.50;97.70
1123;DHT22;548;48.778;9.252;2023-04-24T09:57:48;17.50;92.40
1123;DHT22;548;48.778;9.252;2023-04-24T10:03:04;17.90;90.50
1123;DHT22;548;48.778;9.252;2023-04-24T10:05:33;17.50;89.30
1123;DHT22;548;48.778;9.252;2023-04-24T10:08:02;16.80;90.20
1123;DHT22;548;48.778;9.252;2023-04-24T10:10:29;16.20;91.60
1123;DHT22;548;48.778;9.252;2023-04-24T10:12:59;15.80;91.40
1123;DHT22;548;48.778;9.252;2023-04-24T10:15:26;16.10;91.60
1123;DHT22;548;48.778;9.252;2023-04-24T10:17:53;15.90;99.90
1123;DHT22;548;48.778;9.252;2023-04-24T10:20:21;16.00;90.30
1123;DHT22;548;48.778;9.252;2023-04-24T10:22:49;16.10;89.10
1123;DHT22;548;48.778;9.252;2023-04-24T10:25:18;16.20;87.50
1123;DHT22;548;48.778;9.252;2023-04-24T10:27:46;19.60;74.70
1123;DHT22;548;48.778;9.252;2023-04-24T10:30:15;19.60;75.30
1123;DHT22;548;48.778;9.252;2023-04-24T10:32:42;20.10;71.30
1123;DHT22;548;48.778;9.252;2023-04-24T10:35:09;20.00;68.70
1123;DHT22;548;48.778;9.252;2023-04-24T10:37:37;20.30;68.20
1123;DHT22;548;48.778;9.252;2023-04-24T10:40:06;20.20;68.80
1123;DHT22;548;48.778;9.252;2023-04-24T10:42:34;19.80;66.20
1123;DHT22;548;48.778;9.252;2023-04-24T10:45:05;18.60;66.80
1123;DHT22;548;48.778;9.252;2023-04-24T10:47:40;17.90;70.50
1123;DHT22;548;48.778;9.252;2023-04-24T10:50:09;16.60;91.50
1123;DHT22;548;48.778;9.252;2023-04-24T10:52:45;16.60;74.40
1123;DHT22;548;48.778;9.252;2023-04-24T10:55:13;16.30;76.50
1123;DHT22;548;48.778;9.252;2023-04-24T10:58:03;15.90;78.30
1123;DHT22;548;48.778;9.252;2023-04-24T11:00:30;15.80;79.50
1123;DHT22;548;48.778;9.252;2023-04-24T11:02:58;15.80;80.90
1123;DHT22;548;48.778;9.252;2023-04-24T11:05:50;15.80;81.30
1123;DHT22;548;48.778;9.252;2023-04-24T11:08:26;15.80;81.70
1123;DHT22;548;48.778;9.252;2023-04-24T11:10:58;16.10;81.40
1123;DHT22;548;48.778;9.252;2023-04-24T11:13:27;15.90;81.00
1123;DHT22;548;48.778;9.252;2023-04-24T11:16:13;15.80;81.50
1123;DHT22;548;48.778;9.252;2023-04-24T11:18:42;15.50;83.90
1123;DHT22;548;48.778;9.252;2023-04-24T11:21:11;15.30;85.50
1123;DHT22;548;48.778;9.252;2023-04-24T11:23:38;15.00;85.30
1123;DHT22;548;48.778;9.252;2023-04-24T11:26:11;14.90;86.50
1123;DHT22;548;48.778;9.252;2023-04-24T11:28:44;15.00;86.50
1123;DHT22;548;48.778;9.252;2023-04-24T11:31:34;15.10;87.10
1123;DHT22;548;48.778;9.252;2023-04-24T11:34:07;15.40;86.10
1123;DHT22;548;48.778;9.252;2023-04-24T11:36:35;15.50;85.60
1123;DHT22;548;48.778;9.252;2023-04-24T11:39:02;16.00;84.10
1123;DHT22;548;48.778;9.252;2023-04-24T11:41:29;16.30;82.40
1123;DHT22;548;48.778;9.252;2023-04-24T11:43:56;16.40;82.00
1123;DHT22;548;48.778;9.252;2023-04-24T11:46:27;16.60;81.90
1123;DHT22;548;48.778;9.252;2023-04-24T11:48:54;16.80;79.20
1123;DHT22;548;48.778;9.252;2023-04-24T11:51:22;16.50;79.50
1123;DHT22;548;48.778;9.252;2023-04-24T11:53:50;16.20;81.80
1123;DHT22;548;48.778;9.252;2023-04-24T11:56:17;16.10;81.80
1123;DHT22;548;48.778;9.252;2023-04-24T11:58:45;15.90;83.10
1123;DHT22;548;48.778;9.252;2023-04-24T12:01:12;15.40;84.70
1123;DHT22;548;48.778;9.252;2023-04-24T12:03:39;15.00;85.70
1123;DHT22;548;48.778;9.252;2023-04-24T12:06:09;14.80;87.20
1123;DHT22;548;48.778;9.252;2023-04-24T12:08:37;14.70;88.50
1123;DHT22;548;48.778;9.252;2023-04-24T12:11:06;15.20;87.50
1123;DHT22;548;48.778;9.252;2023-04-24T12:13:33;16.10;85.10
1123;DHT22;548;48.778;9.252;2023-04-24T12:16:03;17.20;83.50
1123;DHT22;548;48.778;9.252;2023-04-24T12:18:30;17.80;79.50
1123;DHT22;548;48.778;9.252;2023-04-24T12:21:15;18.10;79.40
1123;DHT22;548;48.778;9.252;2023-04-24T12:23:44;18.40;77.90
1123;DHT22;548;48.778;9.252;2023-04-24T12:26:11;17.70;77.10
1123;DHT22;548;48.778;9.252;2023-04-24T12:28:38;17.20;79.40
1123;DHT22;548;48.778;9.252;2023-04-24T12:31:06;16.80;78.80
1123;DHT22;548;48.778;9.252;2023-04-24T12:33:34;16.50;81.30
1123;DHT22;548;48.778;9.252;2023-04-24T12:36:01;16.00;82.80
1123;DHT22;548;48.778;9.252;2023-04-24T12:38:28;15.70;83.70
1123;DHT22;548;48.778;9.252;2023-04-24T12:41:04;16.00;83.90
1123;DHT22;548;48.778;9.252;2023-04-24T12:43:31;15.80;82.70
1123;DHT22;548;48.778;9.252;2023-04-24T12:45:58;15.70;81.60
1123;DHT22;548;48.778;9.252;2023-04-24T12:48:25;15.20;81.70
1123;DHT22;548;48.778;9.252;2023-04-24T12:50:52;15.30;82.50
1123;DHT22;548;48.778;9.252;2023-04-24T12:53:18;16.10;81.60
1123;DHT22;548;48.778;9.252;2023-04-24T12:55:45;16.40;80.20
1123;DHT22;548;48.778;9.252;2023-04-24T12:58:19;16.30;80.00
1123;DHT22;548;48.778;9.252;2023-04-24T13:00:46;16.30;80.60
1123;DHT22;548;48.778;9.252;2023-04-24T13:03:13;15.80;80.50
1123;DHT22;548;48.778;9.252;2023-04-24T13:05:40;15.40;82.20
1123;DHT22;548;48.778;9.252;2023-04-24T13:08:07;15.30;84.30
1123;DHT22;548;48.778;9.252;2023-04-24T13:10:34;15.10;85.40
1123;DHT22;548;48.778;9.252;2023-04-24T13:13:00;14.90;87.30
1123;DHT22;548;48.778;9.252;2023-04-24T13:15:29;14.60;91.80
1123;DHT22;548;48.778;9.252;2023-04-24T13:17:56;14.00;99.90
1123;DHT22;548;48.778;9.252;2023-04-24T13:20:22;13.30;99.90
1123;DHT22;548;48.778;9.252;2023-04-24T13:22:49;13.30;99.90
1123;DHT22;548;48.778;9.252;2023-04-24T13:25:16;13.50;99.90
1123;DHT22;548;48.778;9.252;2023-04-24T13:27:43;14.00;99.90
1123;DHT22;548;48.778;9.252;2023-04-24T13:30:10;14.50;99.90
1123;DHT22;548;48.778;9.252;2023-04-24T13:32:39;14.80;99.90
1123;DHT22;548;48.778;9.252;2023-04-24T13:35:06;14.80;99.90
1123;DHT22;548;48.778;9.252;2023-04-24T13:37:33;15.50;99.90
1123;DHT22;548;48.778;9.252;2023-04-24T13:39:59;16.00;99.90
1123;DHT22;548;48.778;9.252;2023-04-24T13:42:26;16.70;99.90
1123;DHT22;548;48.778;9.252;2023-04-24T13:45:02;16.70;98.50
1123;DHT22;548;48.778;9.252;2023-04-24T13:47:29;16.40;97.50
1123;DHT22;548;48.778;9.252;2023-04-24T13:49:57;16.30;99.60
1123;DHT22;548;48.778;9.252;2023-04-24T13:52:24;15.80;99.90
1123;DHT22;548;48.778;9.252;2023-04-24T13:54:51;15.20;99.30
1123;DHT22;548;48.778;9.252;2023-04-24T13:57:17;14.60;99.90
1123;DHT22;548;48.778;9.252;2023-04-24T13:59:45;14.00;99.90
1123;DHT22;548;48.778;9.252;2023-04-24T14:02:11;13.00;99.90
1123;DHT22;548;48.778;9.252;2023-04-24T14:04:38;12.40;99.90
1123;DHT22;548;48.778;9.252;2023-04-24T14:07:06;11.90;99.90
1123;DHT22;548;48.778;9.252;2023-04-24T14:09:34;11.70;99.90
1123;DHT22;548;48.778;9.252;2023-04-24T14:12:01;11.70;99.90
1123;DHT22;548;48.778;9.252;2023-04-24T14:14:28;11.90;99.90
1123;DHT22;548;48.778;9.252;2023-04-24T14:16:55;12.30;99.90
1123;DHT22;548;48.778;9.252;2023-04-24T14:19:22;12.80;99.90
1123;DHT22;548;48.778;9.252;2023-04-24T14:21:49;13.20;99.90
1123;DHT22;548;48.778;9.252;2023-04-24T14:24:17;13.70;99.90
1123;DHT22;548;48.778;9.252;2023-04-24T14:26:44;13.60;99.90
1123;DHT22;548;48.778;9.252;2023-04-24T14:29:10;13.60;99.90
1123;DHT22;548;48.778;9.252;2023-04-24T14:31:37;14.50;99.90
1123;DHT22;548;48.778;9.252;2023-04-24T14:34:04;15.20;99.90
1123;DHT22;548;48.778;9.252;2023-04-24T14:36:30;15.00;99.90
1123;DHT22;548;48.778;9.252;2023-04-24T14:38:57;14.70;99.90
1123;DHT22;548;48.778;9.252;2023-04-24T14:41:25;14.50;99.90
1123;DHT22;548;48.778;9.252;2023-04-24T14:43:52;14.40;99.90
1123;DHT22;548;48.778;9.252;2023-04-24T14:46:19;14.40;99.90
1123;DHT22;548;48.778;9.252;2023-04-24T14:48:46;14.30;99.90
1123;DHT22;548;48.778;9.252;2023-04-24T14:51:13;14.10;99.90
1123;DHT22;548;48.778;9.252;2023-04-24T14:53:40;14.10;99.90
1123;DHT22;548;48.778;9.252;2023-04-24T15:04:47;14.40;99.90
1123;DHT22;548;48.778;9.252;2023-04-24T15:07:14;15.00;99.90
1123;DHT22;548;48.778;9.252;2023-04-24T15:09:40;15.40;99.90
1123;DHT22;548;48.778;9.252;2023-04-24T15:12:08;15.50;99.90
1123;DHT22;548;48.778;9.252;2023-04-24T15:30:18;14.30;99.90
1123;DHT22;548;48.778;9.252;2023-04-24T15:48:27;13.40;99.90
1123;DHT22;548;48.778;9.252;2023-04-24T15:50:53;13.10;99.90
1123;DHT22;548;48.778;9.252;2023-04-24T15:53:20;12.30;99.90
1123;DHT22;548;48.778;9.252;2023-04-24T15:55:47;11.90;99.90
1123;DHT22;548;48.778;9.252;2023-04-24T15:58:14;12.00;99.90
1123;DHT22;548;48.778;9.252;2023-04-24T16:00:40;12.10;99.90
1123;DHT22;548;48.778;9.252;2023-04-24T16:03:07;12.10;99.90
1123;DHT22;548;48.778;9.252;2023-04-24T16:05:35;11.90;99.90
1123;DHT22;548;48.778;9.252;2023-04-24T16:08:02;11.80;99.90
1123;DHT22;548;48.778;9.252;2023-04-24T16:10:28;11.70;99.90
1123;DHT22;548;48.778;9.252;2023-04-24T16:12:55;11.70;99.90
1123;DHT22;548;48.778;9.252;2023-04-24T16:15:22;11.70;99.90
1123;DHT22;548;48.778;9.252;2023-04-24T16:17:49;11.70;99.90
1123;DHT22;548;48.778;9.252;2023-04-24T16:20:16;11.80;99.90
1123;DHT22;548;48.778;9.252;2023-04-24T16:22:44;11.70;99.90
1123;DHT22;548;48.778;9.252;2023-04-24T16:25:11;11.70;99.90
1123;DHT22;548;48.778;9.252;2023-04-24T16:27:38;11.80;99.90
1123;DHT22;548;48.778;9.252;2023-04-24T16:30:05;12.00;99.90
1123;DHT22;548;48.778;9.252;2023-04-24T16:32:32;12.10;99.90
1123;DHT22;548;48.778;9.252;2023-04-24T16:34:59;12.00;99.90
1123;DHT22;548;48.778;9.252;2023-04-24T16:37:27;12.10;99.90
1123;DHT22;548;48.778;9.252;2023-04-24T16:39:55;12.00;99.90
1123;DHT22;548;48.778;9.252;2023-04-24T16:42:22;12.00;99.90
1123;DHT22;548;48.778;9.252;2023-04-24T16:44:49;12.00;99.90
1123;DHT22;548;48.778;9.252;2023-04-24T16:47:16;12.10;99.90
1123;DHT22;548;48.778;9.252;2023-04-24T16:49:43;12.20;99.90
1123;DHT22;548;48.778;9.252;2023-04-24T16:52:10;12.40;99.90
1123;DHT22;548;48.778;9.252;2023-04-24T16:54:37;12.50;99.90
1123;DHT22;548;48.778;9.252;2023-04-24T16:57:06;12.60;99.90
1123;DHT22;548;48.778;9.252;2023-04-24T16:59:33;12.80;99.90
1123;DHT22;548;48.778;9.252;2023-04-24T17:02:00;12.90;99.90
1123;DHT22;548;48.778;9.252;2023-04-24T17:04:27;13.10;99.90
1123;DHT22;548;48.778;9.252;2023-04-24T17:06:54;13.20;99.90
1123;DHT22;548;48.778;9.252;2023-04-24T17:09:21;13.30;99.90
1123;DHT22;548;48.778;9.252;2023-04-24T17:11:48;13.40;99.90
1123;DHT22;548;48.778;9.252;2023-04-24T17:14:16;13.50;99.90
1123;DHT22;548;48.778;9.252;2023-04-24T17:16:43;13.70;99.90
1123;DHT22;548;48.778;9.252;2023-04-24T17:19:11;13.80;99.90
1123;DHT22;548;48.778;9.252;2023-04-24T17:21:37;13.70;99.90
1123;DHT22;548;48.778;9.252;2023-04-24T17:24:05;13.60;99.90
1123;DHT22;548;48.778;9.252;2023-04-24T18:04:07;12.50;99.90
1123;DHT22;548;48.778;9.252;2023-04-24T18:21:19;12.50;99.90
1123;DHT22;548;48.778;9.252;2023-04-24T18:33:36;12.50;99.90
1123;DHT22;548;48.778;9.252;2023-04-24T18:36:03;12.40;99.90
1123;DHT22;548;48.778;9.252;2023-04-24T18:38:31;12.40;99.90
1123;DHT22;548;48.778;9.252;2023-04-24T18:40:58;12.40;99.90
1123;DHT22;548;48.778;9.252;2023-04-24T18:43:25;12.60;99.90
1123;DHT22;548;48.778;9.252;2023-04-24T18:45:51;12.20;99.90
1123;DHT22;548;48.778;9.252;2023-04-24T18:48:18;12.20;99.90
1123;DHT22;548;48.778;9.252;2023-04-24T18:50:45;12.10;99.90
1123;DHT22;548;48.778;9.252;2023-04-24T18:53:11;12.00;99.90
1123;DHT22;548;48.778;9.252;2023-04-24T18:55:42;11.90;99.90
1123;DHT22;548;48.778;9.252;2023-04-24T18:58:09;11.90;99.90
1123;DHT22;548;48.778;9.252;2023-04-24T19:03:03;11.70;99.90
1123;DHT22;548;48.778;9.252;2023-04-24T19:05:30;11.50;99.90
1123;DHT22;548;48.778;9.252;2023-04-24T19:07:56;11.30;99.90
1123;DHT22;548;48.778;9.252;2023-04-24T19:10:23;11.30;99.90
1123;DHT22;548;48.778;9.252;2023-04-24T19:12:53;11.10;99.90
1123;DHT22;548;48.778;9.252;2023-04-24T19:15:21;11.00;99.90
1123;DHT22;548;48.778;9.252;2023-04-24T19:17:48;11.00;99.90
1123;DHT22;548;48.778;9.252;2023-04-24T19:20:16;10.90;99.90
1123;DHT22;548;48.778;9.252;2023-04-24T19:22:43;10.80;99.90
1123;DHT22;548;48.778;9.252;2023-04-24T19:25:09;10.60;99.90
1123;DHT22;548;48.778;9.252;2023-04-24T19:27:36;10.60;99.90
1123;DHT22;548;48.778;9.252;2023-04-24T19:30:06;10.50;99.90
1123;DHT22;548;48.778;9.252;2023-04-24T19:32:32;10.60;99.90
1123;DHT22;548;48.778;9.252;2023-04-24T19:34:59;10.50;99.90
1123;DHT22;548;48.778;9.252;2023-04-24T19:37:26;10.40;99.90
1123;DHT22;548;48.778;9.252;2023-04-24T19:39:53;10.40;99.90
1123;DHT22;548;48.778;9.252;2023-04-24T19:42:19;10.40;99.90
1123;DHT22;548;48.778;9.252;2023-04-24T19:44:46;10.50;99.90
1123;DHT22;548;48.778;9.252;2023-04-24T19:47:14;10.40;99.90
1123;DHT22;548;48.778;9.252;2023-04-24T19:49:41;10.40;99.90
1123;DHT22;548;48.778;9.252;2023-04-24T19:52:07;10.30;99.90
1123;DHT22;548;48.778;9.252;2023-04-24T19:54:34;10.30;99.90
1123;DHT22;548;48.778;9.252;2023-04-24T19:57:00;10.40;99.90
1123;DHT22;548;48.778;9.252;2023-04-24T19:59:28;10.30;99.90
1123;DHT22;548;48.778;9.252;2023-04-24T20:01:54;10.20;99.90
1123;DHT22;548;48.778;9.252;2023-04-24T20:04:22;10.30;99.90
1123;DHT22;548;48.778;9.252;2023-04-24T20:06:49;10.20;99.90
1123;DHT22;548;48.778;9.252;2023-04-24T20:09:16;10.30;99.90
1123;DHT22;548;48.778;9.252;2023-04-24T20:11:42;10.20;99.90
1123;DHT22;548;48.778;9.252;2023-04-24T20:14:11;10.30;99.90
1123;DHT22;548;48.778;9.252;2023-04-24T20:16:38;10.30;99.90
1123;DHT22;548;48.778;9.252;2023-04-24T20:19:05;10.30;99.90
1123;DHT22;548;48.778;9.252;2023-04-24T20:21:33;10.30;99.90
1123;DHT22;548;48.778;9.252;2023-04-24T20:24:00;10.30;99.90
1123;DHT22;548;48.778;9.252;2023-04-24T20:26:28;10.30;99.90
1123;DHT22;548;48.778;9.252;2023-04-24T20:28:55;10.30;99.90
1123;DHT22;548;48.778;9.252;2023-04-24T20:31:22;10.30;99.90
1123;DHT22;548;48.778;9.252;2023-04-24T20:33:48;10.30;99.90
1123;DHT22;548;48.778;9.252;2023-04-24T20:36:15;10.30;99.90
1123;DHT22;548;48.778;9.252;2023-04-24T20:38:43;10.30;99.90
1123;DHT22;548;48.778;9.252;2023-04-24T20:41:11;10.30;99.90
1123;DHT22;548;48.778;9.252;2023-04-24T20:43:38;10.30;99.90
1123;DHT22;548;48.778;9.252;2023-04-24T20:48:32;10.10;99.90
1123;DHT22;548;48.778;9.252;2023-04-24T20:50:58;10.10;99.90
1123;DHT22;548;48.778;9.252;2023-04-24T20:53:26;10.00;99.90
1123;DHT22;548;48.778;9.252;2023-04-24T20:55:54;9.90;99.90
1123;DHT22;548;48.778;9.252;2023-04-24T20:58:21;9.90;99.90
1123;DHT22;548;48.778;9.252;2023-04-24T21:00:48;9.90;99.90
1123;DHT22;548;48.778;9.252;2023-04-24T21:03:15;9.70;99.90
1123;DHT22;548;48.778;9.252;2023-04-24T21:05:42;9.70;99.90
1123;DHT22;548;48.778;9.252;2023-04-24T21:08:08;9.60;99.90
1123;DHT22;548;48.778;9.252;2023-04-24T21:10:35;9.60;99.90
1123;DHT22;548;48.778;9.252;2023-04-24T21:13:03;9.50;99.90
1123;DHT22;548;48.778;9.252;2023-04-24T21:15:30;9.40;99.90
1123;DHT22;548;48.778;9.252;2023-04-24T21:17:57;9.40;99.90
1123;DHT22;548;48.778;9.252;2023-04-24T21:20:24;9.30;99.90
1123;DHT22;548;48.778;9.252;2023-04-24T21:22:51;9.20;99.90
1123;DHT22;548;48.778;9.252;2023-04-24T21:25:18;9.20;99.90
1123;DHT22;548;48.778;9.252;2023-04-24T21:27:44;9.10;99.90
1123;DHT22;548;48.778;9.252;2023-04-24T21:30:13;9.10;99.90
1123;DHT22;548;48.778;9.252;2023-04-24T21:32:39;9.10;99.90
1123;DHT22;548;48.778;9.252;2023-04-24T21:35:07;9.00;99.90
1123;DHT22;548;48.778;9.252;2023-04-24T21:37:34;9.00;99.90
1123;DHT22;548;48.778;9.252;2023-04-24T21:40:02;9.00;99.90
1123;DHT22;548;48.778;9.252;2023-04-24T21:42:30;9.00;99.90
1123;DHT22;548;48.778;9.252;2023-04-24T21:44:56;9.00;99.90
1123;DHT22;548;48.778;9.252;2023-04-24T21:47:24;9.10;99.90
1123;DHT22;548;48.778;9.252;2023-04-24T21:49:51;9.10;99.90
1123;DHT22;548;48.778;9.252;2023-04-24T21:52:18;9.10;99.90
1123;DHT22;548;48.778;9.252;2023-04-24T21:54:44;9.20;99.90
1123;DHT22;548;48.778;9.252;2023-04-24T21:57:11;9.20;99.90
1123;DHT22;548;48.778;9.252;2023-04-24T21:59:38;9.30;99.90
1123;DHT22;548;48.778;9.252;2023-04-24T22:02:05;9.30;99.90
1123;DHT22;548;48.778;9.252;2023-04-24T22:04:33;9.30;99.90
1123;DHT22;548;48.778;9.252;2023-04-24T22:06:59;9.40;99.90
1123;DHT22;548;48.778;9.252;2023-04-24T22:09:26;9.40;99.90
1123;DHT22;548;48.778;9.252;2023-04-24T22:11:53;9.40;99.90
1123;DHT22;548;48.778;9.252;2023-04-24T22:14:20;9.40;99.90
1123;DHT22;548;48.778;9.252;2023-04-24T22:16:46;9.50;99.90
1123;DHT22;548;48.778;9.252;2023-04-24T22:19:14;9.50;99.90
1123;DHT22;548;48.778;9.252;2023-04-24T22:21:42;9.50;99.90
1123;DHT22;548;48.778;9.252;2023-04-24T22:24:10;9.50;99.90
1123;DHT22;548;48.778;9.252;2023-04-24T22:27:15;9.50;99.90
1123;DHT22;548;48.778;9.252;2023-04-24T22:29:42;9.40;99.90
1123;DHT22;548;48.778;9.252;2023-04-24T22:32:09;9.40;99.90
1123;DHT22;548;48.778;9.252;2023-04-24T22:34:35;9.40;99.90
1123;DHT22;548;48.778;9.252;2023-04-24T22:37:03;9.30;99.90
1123;DHT22;548;48.778;9.252;2023-04-24T22:39:30;9.30;99.90
1123;DHT22;548;48.778;9.252;2023-04-24T22:41:57;9.20;99.90
1123;DHT22;548;48.778;9.252;2023-04-24T22:44:24;9.20;99.90